Airfield :
LOGIN :

Register | Disclaimer

   EN    FR    IT 

 










Legend :    VFR   Marginal VFR   IFR   Intensive IFR   Very Intensive IFR
Visi :
Ceiling :
>= 8 km
>= 3000ft
5 to 8 km
1000 to 3000 ft
1500m to 5 km
500 to 1000 ft
800 to 1500m
200 to 500 ft
< 800m
< 200 ft
Symbols :   Thunderstorms  Fog  Heavy snow  Heavy precipitations  Wind > 20 kt
SIGMETs :     Misc.  Thunderstorms  Icing  Turbulence  Mountain Waves  Volcanic Ashes






- Airport Elevation : 277 ft
- IATA code : JER


EGJJ - Jersey

CURRENT METAR :
  • 232250Z AUTO 19003KT 9999 FEW032/// 04/M01 Q1000

EXPIRED METARs :
  • 232220Z AUTO VRB01KT 9999 NCD 04/M02 Q1000
  • 232150Z AUTO 28002KT 9999 NCD 04/M01 Q1000
  • 232120Z AUTO 26002KT 9999 NCD 03/M01 Q1000
  • 232050Z AUTO 31002KT 9999 FEW031/// 03/M01 Q1000
  • 232020Z 32004KT 9999 FEW031 03/M01 Q1000

TAF TAF EGJJ
Valid from the 23 at 21:00 until the 24 at 06:00 UTC


231958Z 2321/2406 32005KT 9999 FEW025
BECMG 2401/2403 19010KT
BECMG 2403/2405 20020KT -RA BKN012
TEMPO 2404/2406 21023G33KT 7000 RA BKN008
PROB30
TEMPO 2404/2406 4000 +RASN BKN005
ATIS : +44 1534 498 073



MET'MAP, your aeronautical weather chart ! - Copyright ORBIFLY December 2007 - Disclaimer

ORBIFLY MET'MAP TEAM :

Programming & Development : Alexandra Zaïnal
Concept & original design : Baudouin d'Aumeries
Assistance for programming : Marc-Olivier Méhu
Technical & hardware support : Manuel Goepfert

Contact : metmap@orbifly.com




SOURCES & CREDITS :

   NOAA